Time;durP1;ratioP1;P1;durP2;ratioP2;P2;SDS_P1;SDS_P2;PMS_P1;PMS_P2;Temp;Humidity;BMP_temperature;BMP_pressure;BME280_temperature;BME280_humidity;BME280_pressure;Samples;Min_cycle;Max_cycle;Signal;HPM_P1;HPM_P2
2022/02/16 00:02:24;;;;;;;2.70;2.40;;;22.80;58.90;;;;;;5030538;28;20223;-59
2022/02/16 00:04:55;;;;;;;2.30;1.83;;;22.80;59.10;;;;;;5029955;28;20231;-59
2022/02/16 00:07:26;;;;;;;2.10;1.83;;;22.80;59.10;;;;;;5029967;28;20200;-59
2022/02/16 00:09:58;;;;;;;2.67;1.85;;;22.90;59.00;;;;;;5030814;28;20273;-59
2022/02/16 00:12:29;;;;;;;2.60;1.77;;;22.90;59.00;;;;;;5028927;28;20238;-58
2022/02/16 00:14:59;;;;;;;3.00;1.95;;;23.00;59.10;;;;;;5030983;28;20250;-58
2022/02/16 00:17:30;;;;;;;2.58;1.80;;;23.00;59.10;;;;;;5030496;28;20193;-60
2022/02/16 00:20:01;;;;;;;4.28;2.10;;;23.10;59.00;;;;;;5030259;28;20208;-59
2022/02/16 00:22:31;;;;;;;3.72;2.50;;;23.10;58.90;;;;;;5029354;28;20227;-61
2022/02/16 00:25:04;;;;;;;2.88;1.92;;;23.20;59.00;;;;;;5030391;28;20188;-59
2022/02/16 00:27:35;;;;;;;2.58;1.90;;;23.20;58.80;;;;;;5030794;28;20199;-59
2022/02/16 00:30:09;;;;;;;3.38;2.00;;;23.30;58.80;;;;;;5030239;28;20224;-58
2022/02/16 00:32:40;;;;;;;3.58;1.98;;;23.30;58.80;;;;;;5030570;28;20230;-61
2022/02/16 00:35:11;;;;;;;3.25;1.77;;;23.30;58.60;;;;;;5030493;28;20246;-59
2022/02/16 00:37:42;;;;;;;3.33;1.75;;;23.40;58.70;;;;;;5029422;28;20224;-59
2022/02/16 00:40:15;;;;;;;3.08;2.20;;;23.40;58.70;;;;;;5029782;28;20266;-60
2022/02/16 00:42:45;;;;;;;2.30;2.03;;;23.40;58.60;;;;;;5029132;28;20216;-59
2022/02/16 00:45:16;;;;;;;2.42;2.10;;;23.50;58.60;;;;;;5029761;28;20767;-60
2022/02/16 00:47:47;;;;;;;3.20;2.20;;;23.50;58.80;;;;;;5030011;28;20193;-59
2022/02/16 00:50:17;;;;;;;3.83;2.10;;;23.50;58.80;;;;;;5029895;28;20216;-59
2022/02/16 00:52:48;;;;;;;2.58;2.03;;;23.60;58.80;;;;;;5030090;28;20204;-59
2022/02/16 00:55:21;;;;;;;2.95;2.22;;;23.70;58.80;;;;;;5029235;28;20206;-59
2022/02/16 00:57:52;;;;;;;2.50;1.80;;;23.70;59.20;;;;;;5029607;28;20224;-59
2022/02/16 01:00:22;;;;;;;3.28;2.17;;;23.70;58.80;;;;;;5029895;28;20590;-59
2022/02/16 01:02:53;;;;;;;3.08;1.98;;;23.70;58.70;;;;;;5029394;28;20699;-60
2022/02/16 01:05:24;;;;;;;3.95;2.20;;;23.80;58.80;;;;;;5030240;28;20188;-60
2022/02/16 01:07:55;;;;;;;3.80;1.90;;;23.90;58.80;;;;;;5029719;28;20196;-59
2022/02/16 01:10:27;;;;;;;4.63;2.30;;;23.90;58.70;;;;;;5029601;28;20299;-59
2022/02/16 01:12:58;;;;;;;3.80;1.90;;;24.00;58.80;;;;;;5029516;28;20750;-60
2022/02/16 01:15:29;;;;;;;4.97;2.10;;;24.00;58.70;;;;;;5029294;28;20645;-60
2022/02/16 01:17:59;;;;;;;5.82;2.28;;;24.10;58.70;;;;;;5028984;28;20196;-59
2022/02/16 01:20:30;;;;;;;4.55;2.00;;;24.10;58.50;;;;;;5029360;28;20212;-61
2022/02/16 01:23:01;;;;;;;2.90;1.73;;;24.20;58.40;;;;;;5029624;28;20278;-60
2022/02/16 01:25:33;;;;;;;3.17;1.90;;;24.20;58.40;;;;;;5029158;28;20188;-59
2022/02/16 01:28:04;;;;;;;3.05;1.88;;;24.20;58.20;;;;;;5041399;22;20224;-57
2022/02/16 01:30:35;;;;;;;3.13;2.33;;;24.30;58.20;;;;;;5029139;28;20220;-59
2022/02/16 01:33:06;;;;;;;2.72;1.88;;;24.30;58.10;;;;;;5029967;28;20200;-66
2022/02/16 01:35:36;;;;;;;4.05;2.10;;;24.30;58.30;;;;;;5029423;28;20609;-61
2022/02/16 01:38:07;;;;;;;5.07;2.10;;;24.40;58.40;;;;;;5029873;28;20214;-59
2022/02/16 01:40:39;;;;;;;3.30;2.03;;;24.40;58.40;;;;;;5028164;28;20281;-52
2022/02/16 01:43:10;;;;;;;4.88;2.10;;;24.50;58.30;;;;;;5028629;28;20711;-61
2022/02/16 01:45:41;;;;;;;4.60;1.98;;;24.50;58.30;;;;;;5029272;28;20725;-64
2022/02/16 01:48:12;;;;;;;4.03;2.05;;;24.50;58.20;;;;;;5028668;28;20571;-60
2022/02/16 01:50:43;;;;;;;4.63;2.20;;;24.50;58.20;;;;;;5028273;28;20230;-50
2022/02/16 01:53:13;;;;;;;2.55;2.05;;;24.60;58.10;;;;;;5028983;28;20200;-66
2022/02/16 01:55:47;;;;;;;2.58;1.90;;;24.70;58.10;;;;;;5029109;28;20193;-66
2022/02/16 01:58:18;;;;;;;3.45;2.00;;;24.70;58.10;;;;;;5028298;28;20192;-64
2022/02/16 02:00:49;;;;;;;3.25;2.05;;;24.70;57.90;;;;;;5028861;28;20631;-62
2022/02/16 02:03:19;;;;;;;3.33;1.70;;;24.80;57.60;;;;;;5028635;28;20277;-61
2022/02/16 02:05:51;;;;;;;3.50;2.13;;;24.80;57.50;;;;;;5028658;28;20258;-60
2022/02/16 02:08:23;;;;;;;3.60;2.15;;;24.90;57.40;;;;;;5028776;28;20263;-63
2022/02/16 02:10:58;;;;;;;4.15;2.00;;;24.90;57.30;;;;;;5027986;28;20255;-64
2022/02/16 02:13:29;;;;;;;4.40;1.95;;;24.90;57.00;;;;;;5028209;28;20290;-65
2022/02/16 02:15:59;;;;;;;2.63;1.88;;;24.90;56.90;;;;;;5027716;28;20271;-51
2022/02/16 02:18:30;;;;;;;2.42;1.90;;;25.00;56.90;;;;;;5028033;28;20608;-66
2022/02/16 02:21:02;;;;;;;3.65;2.00;;;25.00;57.00;;;;;;5027913;28;20212;-67
2022/02/16 02:23:33;;;;;;;1.77;1.67;;;25.00;56.90;;;;;;5029084;28;20203;-61
2022/02/16 02:26:04;;;;;;;2.15;1.70;;;25.10;57.80;;;;;;5042488;22;20200;-58
2022/02/16 02:28:34;;;;;;;3.08;2.17;;;25.10;57.40;;;;;;5006813;28;20204;-58
2022/02/16 02:31:05;;;;;;;1.95;1.48;;;25.10;57.30;;;;;;5008164;28;20221;-58
2022/02/16 02:33:37;;;;;;;3.58;1.92;;;25.20;57.30;;;;;;5008864;28;20267;-58
2022/02/16 02:36:10;;;;;;;2.78;1.80;;;25.20;57.10;;;;;;5008311;28;20229;-59
2022/02/16 02:38:41;;;;;;;2.97;1.83;;;25.20;57.00;;;;;;5007682;28;20205;-58
2022/02/16 02:41:11;;;;;;;2.75;1.70;;;25.30;56.90;;;;;;5007894;28;20213;-59
2022/02/16 02:43:45;;;;;;;1.90;1.63;;;25.30;56.80;;;;;;5007896;28;20213;-60
2022/02/16 02:46:16;;;;;;;4.00;1.70;;;25.30;56.70;;;;;;5009286;28;20215;-58
2022/02/16 02:48:47;;;;;;;1.90;1.70;;;25.40;56.60;;;;;;5008547;28;20205;-59
2022/02/16 02:51:19;;;;;;;2.30;1.98;;;25.40;56.50;;;;;;5009404;28;20275;-57
2022/02/16 02:53:50;;;;;;;2.10;1.90;;;25.50;57.00;;;;;;5008259;28;20197;-58
2022/02/16 02:56:21;;;;;;;3.75;1.77;;;25.50;56.20;;;;;;5008497;28;20200;-59
2022/02/16 02:58:51;;;;;;;2.03;1.40;;;25.50;56.00;;;;;;5007663;28;20275;-58
2022/02/16 03:01:22;;;;;;;2.35;1.58;;;25.50;55.80;;;;;;5011967;28;20193;-60
2022/02/16 03:03:52;;;;;;;1.80;1.50;;;25.60;55.80;;;;;;5012106;28;20196;-59
2022/02/16 03:06:25;;;;;;;2.35;1.58;;;25.60;55.80;;;;;;5011465;28;20335;-59
2022/02/16 03:08:55;;;;;;;2.50;1.60;;;25.60;55.60;;;;;;5012859;28;20204;-58
2022/02/16 03:11:26;;;;;;;1.70;1.60;;;25.60;55.50;;;;;;5012137;28;20240;-59
2022/02/16 03:13:57;;;;;;;1.30;1.20;;;25.70;55.60;;;;;;5011926;28;20205;-60
2022/02/16 03:16:27;;;;;;;2.40;1.60;;;25.70;55.70;;;;;;5011398;28;20255;-59
2022/02/16 03:18:58;;;;;;;2.67;1.40;;;25.70;55.60;;;;;;5012151;28;20205;-58
2022/02/16 03:21:31;;;;;;;2.40;1.50;;;25.80;55.50;;;;;;5011668;28;21144;-58
2022/02/16 03:24:01;;;;;;;4.10;1.30;;;25.80;55.10;;;;;;5010413;28;20193;-55
2022/02/16 03:26:32;;;;;;;3.20;1.20;;;25.80;54.70;;;;;;5011835;28;20205;-53
2022/02/16 03:29:03;;;;;;;1.63;1.10;;;25.80;54.20;;;;;;5011745;28;20201;-58
2022/02/16 03:31:33;;;;;;;2.20;0.98;;;25.80;53.50;;;;;;5011249;28;20200;-59
2022/02/16 03:34:06;;;;;;;1.88;1.10;;;25.70;53.60;;;;;;5011583;28;20201;-58
2022/02/16 03:36:42;;;;;;;1.80;0.85;;;25.70;54.00;;;;;;5012506;28;20201;-58
2022/02/16 03:39:12;;;;;;;2.80;1.10;;;25.60;54.10;;;;;;5012627;28;20227;-58
2022/02/16 03:41:43;;;;;;;5.95;1.35;;;25.60;54.10;;;;;;5008927;28;20201;-58
2022/02/16 03:44:14;;;;;;;2.92;1.30;;;25.70;54.20;;;;;;5011303;28;20197;-58
2022/02/16 03:46:46;;;;;;;2.85;1.40;;;25.70;54.30;;;;;;5011318;28;20247;-58
2022/02/16 03:49:17;;;;;;;2.25;1.10;;;25.70;54.20;;;;;;5010709;28;20216;-58
2022/02/16 03:51:49;;;;;;;3.38;1.25;;;25.80;54.20;;;;;;5011629;28;20547;-59
2022/02/16 03:54:20;;;;;;;3.30;1.00;;;25.80;54.10;;;;;;5011156;28;20208;-58
2022/02/16 03:56:51;;;;;;;3.45;1.35;;;25.80;54.10;;;;;;5011128;28;20243;-58
2022/02/16 03:59:21;;;;;;;2.70;0.90;;;25.80;54.10;;;;;;5010706;28;20267;-58
2022/02/16 04:01:52;;;;;;;2.53;1.20;;;25.90;54.10;;;;;;5011087;28;20381;-59
2022/02/16 04:04:23;;;;;;;2.63;1.20;;;25.90;54.20;;;;;;5011792;28;20782;-59
2022/02/16 04:06:55;;;;;;;1.85;1.00;;;25.90;54.20;;;;;;5011390;28;20201;-58
2022/02/16 04:09:26;;;;;;;2.00;1.23;;;26.00;54.00;;;;;;5010831;28;20637;-59
2022/02/16 04:11:56;;;;;;;2.35;1.10;;;26.00;53.90;;;;;;5010623;28;20207;-57
2022/02/16 04:14:27;;;;;;;2.55;0.95;;;26.00;53.90;;;;;;5009854;28;20235;-58
2022/02/16 04:16:58;;;;;;;1.00;0.90;;;26.10;53.80;;;;;;5010620;28;20197;-58
2022/02/16 04:19:28;;;;;;;1.92;1.08;;;26.10;53.70;;;;;;5011017;28;20240;-57
2022/02/16 04:22:01;;;;;;;1.90;1.10;;;26.10;53.40;;;;;;5011219;28;20668;-59
2022/02/16 04:24:31;;;;;;;1.45;1.00;;;26.20;53.50;;;;;;5010578;28;20275;-57
2022/02/16 04:27:04;;;;;;;1.98;1.05;;;26.20;53.60;;;;;;5010837;28;20259;-57
2022/02/16 04:29:38;;;;;;;1.98;1.25;;;26.20;53.50;;;;;;5010425;28;20221;-58
2022/02/16 04:32:09;;;;;;;1.75;1.20;;;26.30;53.60;;;;;;5010428;28;20216;-58
2022/02/16 04:34:40;;;;;;;2.17;1.08;;;26.30;53.60;;;;;;5010421;28;20205;-59
2022/02/16 04:37:12;;;;;;;1.60;0.93;;;26.40;54.10;;;;;;5009854;28;20205;-59
2022/02/16 04:39:43;;;;;;;1.50;1.00;;;26.40;53.40;;;;;;5010501;28;20221;-58
2022/02/16 04:42:13;;;;;;;2.13;1.10;;;26.40;53.30;;;;;;5010820;28;20700;-58
2022/02/16 04:44:44;;;;;;;2.67;0.80;;;26.40;53.20;;;;;;5009699;28;20668;-57
2022/02/16 04:47:15;;;;;;;2.15;0.98;;;26.40;53.30;;;;;;5009890;28;20247;-58
2022/02/16 04:49:46;;;;;;;2.10;1.00;;;26.50;53.20;;;;;;5009955;28;20235;-58
2022/02/16 04:52:19;;;;;;;2.05;1.10;;;26.50;53.00;;;;;;5009277;28;20262;-58
2022/02/16 04:54:49;;;;;;;2.15;1.05;;;26.50;52.90;;;;;;5009787;28;20661;-57
2022/02/16 04:57:20;;;;;;;2.92;1.40;;;26.50;52.90;;;;;;5009415;28;20267;-57
2022/02/16 04:59:51;;;;;;;2.40;1.08;;;26.50;52.90;;;;;;5010136;28;20693;-57
2022/02/16 05:02:21;;;;;;;2.20;1.10;;;26.50;52.80;;;;;;5009730;28;20228;-57
2022/02/16 05:04:52;;;;;;;3.15;1.13;;;26.60;52.80;;;;;;5010005;28;20593;-58
2022/02/16 05:07:24;;;;;;;5.63;1.60;;;26.60;52.80;;;;;;5009404;28;20243;-58
2022/02/16 05:09:55;;;;;;;2.58;1.30;;;26.60;52.70;;;;;;5008048;28;20229;-59
2022/02/16 05:12:26;;;;;;;3.50;1.15;;;26.60;52.80;;;;;;5008103;28;20205;-57
2022/02/16 05:14:56;;;;;;;3.65;1.20;;;26.70;52.90;;;;;;5009138;28;20676;-58
2022/02/16 05:17:27;;;;;;;4.50;1.58;;;26.70;52.90;;;;;;5008122;28;20267;-58
2022/02/16 05:19:58;;;;;;;2.65;1.23;;;26.70;52.70;;;;;;5009242;28;20259;-57
2022/02/16 05:22:30;;;;;;;2.38;1.08;;;26.70;52.60;;;;;;5008770;28;20732;-58
2022/02/16 05:25:01;;;;;;;2.90;1.17;;;26.70;52.50;;;;;;5009009;28;20201;-58
2022/02/16 05:27:31;;;;;;;2.70;1.20;;;26.80;52.50;;;;;;5010128;28;20200;-58
2022/02/16 05:30:02;;;;;;;3.33;1.05;;;26.80;52.60;;;;;;5009399;28;20209;-57
2022/02/16 05:32:34;;;;;;;3.30;1.35;;;26.80;52.70;;;;;;5009175;28;20197;-57
2022/02/16 05:35:04;;;;;;;4.82;1.42;;;26.80;52.60;;;;;;5009335;28;20200;-58
2022/02/16 05:37:37;;;;;;;3.92;1.90;;;26.80;52.30;;;;;;5008709;28;20193;-57
2022/02/16 05:40:09;;;;;;;3.40;1.70;;;26.80;52.20;;;;;;5009362;28;20296;-59
2022/02/16 05:42:39;;;;;;;3.08;1.77;;;26.80;52.20;;;;;;5009331;28;20276;-58
2022/02/16 05:45:10;;;;;;;2.88;1.48;;;26.90;52.50;;;;;;5009179;28;20574;-58
2022/02/16 05:47:41;;;;;;;3.50;1.50;;;26.80;52.70;;;;;;5009282;28;20322;-59
2022/02/16 05:50:12;;;;;;;2.10;1.50;;;26.80;52.30;;;;;;5008560;28;20286;-58
2022/02/16 05:52:46;;;;;;;2.15;1.20;;;26.80;52.20;;;;;;5008654;28;20274;-58
2022/02/16 05:55:16;;;;;;;2.22;1.38;;;26.80;52.20;;;;;;5009568;28;20348;-59
2022/02/16 05:57:47;;;;;;;2.60;1.60;;;26.80;52.20;;;;;;5009011;28;20204;-59
2022/02/16 06:00:18;;;;;;;3.35;1.52;;;26.80;52.20;;;;;;5008950;28;20275;-59
2022/02/16 06:02:51;;;;;;;2.63;1.70;;;26.80;52.20;;;;;;5008690;28;20233;-59
2022/02/16 06:05:21;;;;;;;3.08;1.38;;;26.80;53.00;;;;;;5008674;28;20224;-59
2022/02/16 06:07:54;;;;;;;3.00;1.65;;;26.80;52.40;;;;;;5008691;28;20200;-59
2022/02/16 06:10:24;;;;;;;3.53;1.65;;;26.80;52.30;;;;;;5008091;28;20271;-58
2022/02/16 06:12:55;;;;;;;2.90;1.40;;;26.80;52.30;;;;;;5008620;28;20196;-58
2022/02/16 06:15:26;;;;;;;2.78;1.35;;;26.80;52.10;;;;;;5009223;28;20200;-58
2022/02/16 06:17:57;;;;;;;3.13;1.30;;;26.80;52.00;;;;;;5009289;28;20189;-58
2022/02/16 06:20:27;;;;;;;3.08;1.30;;;26.80;51.90;;;;;;5008890;28;20650;-59
2022/02/16 06:23:01;;;;;;;2.10;1.40;;;26.70;52.00;;;;;;5008908;28;20282;-58
2022/02/16 06:25:32;;;;;;;3.47;1.27;;;26.70;52.20;;;;;;5008896;28;20201;-58
2022/02/16 06:28:03;;;;;;;3.33;1.20;;;26.70;52.80;;;;;;5009354;28;20205;-58
2022/02/16 06:30:34;;;;;;;1.70;1.13;;;26.70;52.30;;;;;;5008564;28;20231;-58
2022/02/16 06:33:05;;;;;;;2.88;1.15;;;26.70;52.40;;;;;;5008597;28;20548;-58
2022/02/16 06:35:36;;;;;;;1.73;1.33;;;26.70;52.40;;;;;;5007752;28;20205;-58
2022/02/16 06:38:10;;;;;;;2.33;1.10;;;26.70;52.10;;;;;;5008336;28;20211;-58
2022/02/16 06:40:40;;;;;;;2.90;1.20;;;26.60;52.00;;;;;;5009040;28;20231;-58
2022/02/16 06:43:11;;;;;;;1.70;0.90;;;26.60;52.10;;;;;;5010070;28;20224;-58
2022/02/16 06:45:42;;;;;;;1.77;1.25;;;26.60;52.00;;;;;;5010457;28;20204;-58
2022/02/16 06:48:12;;;;;;;1.27;1.02;;;26.60;52.10;;;;;;5009911;28;20212;-57
2022/02/16 06:50:43;;;;;;;1.98;1.15;;;26.60;52.10;;;;;;5008347;28;20235;-58
2022/02/16 06:53:16;;;;;;;2.00;1.30;;;26.60;52.20;;;;;;5009729;28;20209;-58
2022/02/16 06:55:47;;;;;;;2.13;1.20;;;26.50;52.20;;;;;;5010001;28;20282;-59
2022/02/16 06:58:18;;;;;;;1.77;1.20;;;26.50;52.20;;;;;;5003769;28;20208;-58
2022/02/16 07:00:49;;;;;;;2.45;1.05;;;26.50;52.20;;;;;;5007662;28;20291;-59
2022/02/16 07:03:19;;;;;;;1.85;1.13;;;26.50;52.20;;;;;;5009998;28;20244;-59
2022/02/16 07:05:50;;;;;;;3.28;1.20;;;26.50;52.50;;;;;;5010115;28;20224;-58
2022/02/16 07:08:22;;;;;;;2.28;1.00;;;26.40;52.20;;;;;;5009942;28;20216;-58
2022/02/16 07:10:53;;;;;;;2.03;1.00;;;26.40;52.00;;;;;;5009383;28;20228;-58
2022/02/16 07:13:24;;;;;;;2.67;0.95;;;26.30;51.90;;;;;;4990076;28;20677;-58
2022/02/16 07:15:54;;;;;;;2.65;1.00;;;26.30;51.90;;;;;;4989747;28;20213;-57
2022/02/16 07:18:27;;;;;;;1.67;0.95;;;26.30;52.00;;;;;;4989744;28;20225;-58
2022/02/16 07:20:58;;;;;;;2.05;1.10;;;26.20;52.00;;;;;;4990071;28;20238;-59
2022/02/16 07:23:31;;;;;;;2.70;1.17;;;26.20;52.10;;;;;;4989971;28;20229;-58
2022/02/16 07:26:01;;;;;;;0.80;0.80;;;26.20;52.20;;;;;;4990311;28;20221;-58
2022/02/16 07:28:32;;;;;;;1.73;0.90;;;26.10;52.10;;;;;;5010180;28;20279;-60
2022/02/16 07:31:03;;;;;;;1.63;0.88;;;26.10;52.30;;;;;;5009811;28;20278;-58
2022/02/16 07:33:33;;;;;;;0.88;0.70;;;26.10;52.40;;;;;;5009412;28;20271;-59
2022/02/16 07:36:04;;;;;;;1.85;0.95;;;26.10;52.50;;;;;;5009258;28;20213;-57
2022/02/16 07:38:37;;;;;;;1.98;0.70;;;26.00;52.50;;;;;;5009169;28;20415;-58
2022/02/16 07:41:07;;;;;;;1.60;0.77;;;26.00;52.60;;;;;;5009284;28;20279;-59
2022/02/16 07:43:38;;;;;;;1.13;0.80;;;26.00;52.60;;;;;;5009473;28;20326;-60
2022/02/16 07:46:08;;;;;;;2.35;1.00;;;26.00;52.70;;;;;;5010900;28;20262;-58
2022/02/16 07:48:39;;;;;;;1.05;0.70;;;25.90;52.70;;;;;;5013225;28;20209;-58
2022/02/16 07:51:10;;;;;;;1.85;0.90;;;25.90;52.70;;;;;;5013214;28;20221;-59
2022/02/16 07:53:42;;;;;;;1.95;0.98;;;25.90;52.70;;;;;;5013282;28;20756;-59
2022/02/16 07:56:13;;;;;;;2.22;0.90;;;25.90;52.80;;;;;;5012341;28;20204;-58
2022/02/16 07:58:44;;;;;;;1.08;0.77;;;25.90;52.80;;;;;;5012756;28;20208;-58
2022/02/16 08:01:14;;;;;;;1.10;0.85;;;25.80;52.80;;;;;;5012299;28;20235;-59
2022/02/16 08:07:00;;;;;;;1.55;1.00;;;25.80;52.80;;;;;;5168679;27;20295;-58
2022/02/16 08:09:30;;;;;;;1.27;1.00;;;25.80;53.00;;;;;;5141801;27;20219;-59
2022/02/16 08:12:00;;;;;;;1.13;0.70;;;25.80;53.00;;;;;;5126441;27;20240;-58
2022/02/16 08:17:55;;;;;;;1.40;0.80;;;25.70;52.90;;;;;;5110564;27;20621;-58
2022/02/16 08:20:25;;;;;;;1.65;0.93;;;25.70;53.00;;;;;;5126470;27;20221;-58
2022/02/16 08:22:56;;;;;;;2.42;1.20;;;25.70;53.00;;;;;;5126478;27;20215;-59
2022/02/16 08:25:26;;;;;;;5.00;1.75;;;25.60;53.00;;;;;;5126267;27;20224;-59
2022/02/16 08:27:55;;;;;;;4.97;1.48;;;25.60;53.00;;;;;;5126249;27;20200;-59
2022/02/16 08:30:25;;;;;;;3.22;1.48;;;25.60;53.20;;;;;;5126572;27;20220;-59
2022/02/16 08:32:55;;;;;;;3.13;1.50;;;25.60;53.30;;;;;;5125881;28;20269;-59
2022/02/16 08:35:26;;;;;;;4.35;1.48;;;25.50;53.20;;;;;;5126106;28;20231;-59
2022/02/16 08:37:57;;;;;;;2.13;1.30;;;25.50;53.30;;;;;;5125978;28;20197;-59
2022/02/16 08:40:27;;;;;;;4.13;1.40;;;25.50;53.30;;;;;;5125914;27;20252;-59
2022/02/16 08:42:57;;;;;;;3.97;1.42;;;25.50;53.30;;;;;;5120705;27;20211;-58
2022/02/16 08:45:27;;;;;;;3.28;1.40;;;25.50;53.40;;;;;;5124023;28;20343;-59
2022/02/16 08:47:57;;;;;;;4.95;1.20;;;25.50;53.40;;;;;;5124856;27;20204;-59
2022/02/16 08:50:26;;;;;;;4.95;1.38;;;25.40;53.40;;;;;;5123762;27;20228;-59
2022/02/16 08:52:58;;;;;;;6.22;2.03;;;25.40;53.50;;;;;;5122328;27;20197;-59
2022/02/16 08:55:28;;;;;;;5.28;1.67;;;25.40;53.40;;;;;;5123619;28;20207;-59
2022/02/16 08:57:58;;;;;;;5.53;1.40;;;25.40;53.50;;;;;;5123561;28;20197;-59
2022/02/16 09:00:28;;;;;;;6.80;1.80;;;25.30;53.50;;;;;;5122985;27;20270;-59
2022/02/16 09:02:58;;;;;;;5.13;1.90;;;25.30;53.50;;;;;;5124817;28;20196;-59
2022/02/16 09:05:28;;;;;;;4.18;1.48;;;25.30;53.50;;;;;;5123857;28;20221;-59
2022/02/16 09:07:59;;;;;;;3.33;1.30;;;25.30;53.60;;;;;;5124037;28;20197;-59
2022/02/16 09:10:29;;;;;;;5.18;1.88;;;25.30;53.60;;;;;;5122036;27;20859;-59
2022/02/16 09:12:59;;;;;;;6.57;1.80;;;25.30;53.60;;;;;;5122172;28;20216;-59
2022/02/16 09:15:28;;;;;;;4.68;1.80;;;25.30;53.60;;;;;;5122867;28;20201;-59
2022/02/16 09:17:59;;;;;;;6.78;2.00;;;25.20;53.50;;;;;;5111369;28;20202;-59
2022/02/16 09:20:29;;;;;;;6.78;2.38;;;25.20;53.50;;;;;;5109032;28;20221;-58
2022/02/16 09:23:01;;;;;;;4.38;1.77;;;25.20;53.50;;;;;;5109378;28;20201;-58
2022/02/16 09:25:31;;;;;;;6.78;2.30;;;25.10;53.60;;;;;;5108461;28;20349;-59
2022/02/16 09:28:01;;;;;;;3.90;1.80;;;25.10;53.60;;;;;;5109119;28;20623;-59
2022/02/16 09:30:33;;;;;;;6.18;2.05;;;25.10;53.70;;;;;;5109310;28;20217;-58
2022/02/16 09:33:03;;;;;;;4.65;2.13;;;25.10;53.70;;;;;;5109445;28;20226;-58
2022/02/16 09:35:33;;;;;;;5.13;2.10;;;25.10;53.70;;;;;;5108097;28;20749;-59
2022/02/16 09:38:09;;;;;;;4.55;2.20;;;25.00;53.70;;;;;;5109146;28;20216;-59
2022/02/16 09:40:40;;;;;;;5.10;1.77;;;25.00;53.70;;;;;;5109000;28;20808;-60
2022/02/16 09:43:09;;;;;;;3.90;2.20;;;25.00;53.70;;;;;;5108503;28;20205;-59
2022/02/16 09:45:39;;;;;;;6.30;2.00;;;25.00;53.80;;;;;;5108657;28;20229;-58
2022/02/16 09:48:10;;;;;;;6.30;2.30;;;25.00;53.80;;;;;;5108651;28;20266;-59
2022/02/16 09:50:39;;;;;;;4.72;2.17;;;24.90;53.80;;;;;;5108665;28;20229;-59
2022/02/16 09:53:11;;;;;;;4.13;2.30;;;25.00;53.80;;;;;;5108683;28;20240;-59
2022/02/16 09:55:40;;;;;;;5.15;2.03;;;24.90;53.80;;;;;;5108683;28;20206;-59
2022/02/16 09:58:10;;;;;;;6.63;2.20;;;24.90;53.80;;;;;;5108571;28;20273;-58
2022/02/16 10:01:00;;;;;;;3.70;2.00;;;24.90;53.90;;;;;;5107629;28;20221;-58
2022/02/16 10:03:30;;;;;;;5.97;2.60;;;24.90;53.90;;;;;;5107295;28;20270;-58
2022/02/16 10:06:00;;;;;;;6.60;2.58;;;24.90;53.80;;;;;;5107404;28;20221;-58
2022/02/16 10:08:47;;;;;;;4.35;1.98;;;24.80;53.80;;;;;;5108116;28;20844;-58
2022/02/16 10:11:18;;;;;;;5.38;2.38;;;24.80;53.90;;;;;;5107545;28;20220;-58
2022/02/16 10:13:48;;;;;;;5.13;2.13;;;24.80;53.90;;;;;;5108531;28;20213;-58
2022/02/16 10:16:32;;;;;;;5.28;2.45;;;24.70;53.80;;;;;;5108786;28;20201;-58
2022/02/16 10:19:03;;;;;;;5.95;2.58;;;24.70;53.90;;;;;;5108393;28;20204;-59
2022/02/16 10:21:35;;;;;;;4.43;2.05;;;24.70;53.90;;;;;;5107789;28;20679;-58
2022/02/16 10:24:22;;;;;;;4.57;2.03;;;24.70;54.00;;;;;;5107547;28;20219;-59
2022/02/16 10:26:53;;;;;;;4.47;2.03;;;24.70;54.00;;;;;;5108808;28;20225;-58
2022/02/16 10:29:26;;;;;;;5.80;2.10;;;24.60;54.00;;;;;;5107248;28;20229;-59
2022/02/16 10:31:56;;;;;;;5.10;2.42;;;24.60;54.00;;;;;;5108433;28;20208;-59
2022/02/16 10:34:51;;;;;;;4.88;2.15;;;24.60;54.00;;;;;;5108084;28;20205;-59
2022/02/16 10:37:34;;;;;;;6.22;2.20;;;24.60;54.10;;;;;;5107098;28;20206;-59
2022/02/16 10:40:10;;;;;;;6.40;2.30;;;24.50;54.70;;;;;;5107929;28;20251;-59
2022/02/16 10:42:41;;;;;;;6.15;2.33;;;24.50;54.10;;;;;;5107500;28;20254;-58
2022/02/16 10:45:14;;;;;;;5.22;2.17;;;24.50;54.20;;;;;;5108073;28;20221;-59
2022/02/16 10:48:02;;;;;;;4.88;1.90;;;24.50;54.20;;;;;;5107475;28;20201;-59
2022/02/16 10:50:39;;;;;;;6.70;2.60;;;24.50;54.30;;;;;;5106965;28;20221;-59
2022/02/16 10:53:10;;;;;;;5.63;2.30;;;24.50;54.30;;;;;;5107909;28;20201;-60
2022/02/16 10:55:46;;;;;;;8.68;2.30;;;24.50;54.30;;;;;;5107556;28;20201;-59
2022/02/16 10:58:17;;;;;;;4.55;1.88;;;24.50;54.30;;;;;;5107133;28;20193;-59
2022/02/16 11:00:47;;;;;;;5.53;2.40;;;24.40;54.20;;;;;;5104153;28;20275;-59
2022/02/16 11:03:26;;;;;;;3.95;1.88;;;24.40;54.30;;;;;;5106860;28;20220;-59
2022/02/16 11:05:58;;;;;;;4.55;2.08;;;24.40;54.30;;;;;;5107433;28;20225;-58
2022/02/16 11:08:29;;;;;;;4.97;2.28;;;24.40;54.30;;;;;;5107510;28;20209;-58
2022/02/16 11:11:03;;;;;;;5.25;2.55;;;24.30;54.30;;;;;;5107720;28;20770;-59
2022/02/16 11:13:35;;;;;;;4.95;2.33;;;24.30;54.30;;;;;;5107790;28;20240;-59
2022/02/16 11:16:05;;;;;;;3.13;1.90;;;24.30;54.30;;;;;;5107484;28;20212;-59
2022/02/16 11:18:47;;;;;;;4.25;2.05;;;24.30;54.30;;;;;;5106736;28;20198;-59
2022/02/16 11:21:18;;;;;;;4.75;2.22;;;24.30;54.30;;;;;;5107501;28;20243;-59
2022/02/16 11:23:49;;;;;;;4.55;2.17;;;24.30;54.40;;;;;;5109003;28;20758;-60
2022/02/16 11:26:38;;;;;;;5.35;2.00;;;24.20;54.40;;;;;;5111655;28;20274;-59
2022/02/16 11:29:44;;;;;;;4.18;2.25;;;24.30;54.40;;;;;;5090640;28;20206;-60
2022/02/16 11:32:26;;;;;;;3.17;1.65;;;24.20;54.40;;;;;;5089425;28;20205;-60
2022/02/16 11:35:17;;;;;;;4.28;2.00;;;24.20;54.40;;;;;;5089443;28;20653;-59
2022/02/16 11:37:48;;;;;;;5.65;2.13;;;24.20;54.60;;;;;;5086162;28;20241;-59
2022/02/16 11:40:19;;;;;;;4.10;2.15;;;24.20;54.50;;;;;;5105723;28;20221;-59
2022/02/16 11:42:57;;;;;;;4.82;2.00;;;24.20;54.60;;;;;;5109938;28;20212;-59
2022/02/16 11:45:43;;;;;;;6.78;2.30;;;24.20;54.70;;;;;;5129720;28;20258;-59
2022/02/16 11:48:13;;;;;;;5.85;2.40;;;24.10;54.60;;;;;;5130332;28;20831;-59
2022/02/16 11:50:47;;;;;;;4.22;2.03;;;24.10;54.60;;;;;;4961595;28;4060132;-59
2022/02/16 11:53:28;;;;;;;3.22;1.75;;;24.20;54.60;;;;;;5090059;28;20202;-60
2022/02/16 11:56:18;;;;;;;4.63;2.22;;;24.10;54.50;;;;;;5069744;28;20282;-59
2022/02/16 11:59:20;;;;;;;3.35;1.92;;;24.10;54.60;;;;;;5087545;28;20209;-60
2022/02/16 12:02:13;;;;;;;3.90;1.90;;;24.00;54.60;;;;;;5089915;28;20194;-59
2022/02/16 12:04:51;;;;;;;3.50;2.15;;;24.00;54.60;;;;;;5089937;28;20198;-60
2022/02/16 12:07:29;;;;;;;3.58;1.80;;;24.00;54.60;;;;;;5090039;28;20452;-60
2022/02/16 12:10:18;;;;;;;4.32;2.00;;;24.00;54.60;;;;;;5089540;28;20245;-60
2022/02/16 12:12:50;;;;;;;4.70;2.00;;;24.00;54.60;;;;;;5074084;28;20199;-61
2022/02/16 12:15:23;;;;;;;4.22;2.10;;;24.00;54.60;;;;;;5069457;28;20202;-59
2022/02/16 12:17:54;;;;;;;3.85;1.92;;;23.90;54.60;;;;;;5069458;28;20199;-60
2022/02/16 12:20:28;;;;;;;3.67;2.03;;;23.90;54.70;;;;;;5069404;28;20275;-60
2022/02/16 12:23:04;;;;;;;4.55;2.35;;;23.90;54.70;;;;;;5069562;28;20199;-59
2022/02/16 12:25:35;;;;;;;4.22;1.90;;;23.90;54.70;;;;;;5085412;28;20539;-58
2022/02/16 12:28:07;;;;;;;3.97;2.15;;;23.90;54.70;;;;;;5089315;28;20206;-59
2022/02/16 12:30:44;;;;;;;4.22;2.20;;;23.90;54.70;;;;;;5090142;28;20734;-60
2022/02/16 12:33:25;;;;;;;4.43;2.08;;;23.90;54.80;;;;;;5089646;28;20198;-59
2022/02/16 12:35:56;;;;;;;4.38;1.98;;;23.80;54.70;;;;;;5089408;28;20244;-59
2022/02/16 12:38:27;;;;;;;4.13;2.13;;;23.90;54.70;;;;;;5089323;28;20198;-58
2022/02/16 12:41:04;;;;;;;2.90;2.17;;;23.80;54.70;;;;;;5089256;28;20218;-59
2022/02/16 12:43:38;;;;;;;4.45;1.73;;;23.80;54.70;;;;;;5089592;28;20657;-59
2022/02/16 12:46:10;;;;;;;2.58;1.88;;;23.80;54.70;;;;;;5089130;28;20222;-58
2022/02/16 12:48:49;;;;;;;3.40;1.77;;;23.80;54.70;;;;;;5089414;28;20642;-59
2022/02/16 12:51:31;;;;;;;4.20;1.98;;;23.80;54.70;;;;;;5087376;28;20720;-60
2022/02/16 12:54:07;;;;;;;2.78;1.75;;;23.80;54.80;;;;;;5093128;28;20258;-60
2022/02/16 12:56:40;;;;;;;3.50;1.90;;;23.80;54.70;;;;;;5093234;28;20197;-60
2022/02/16 12:59:23;;;;;;;3.63;1.98;;;23.70;54.70;;;;;;5073002;28;20206;-59
2022/02/16 13:01:57;;;;;;;2.47;1.60;;;23.70;54.70;;;;;;5072861;28;20282;-59
2022/02/16 13:04:28;;;;;;;4.40;2.08;;;23.70;54.70;;;;;;5085615;28;20191;-59
2022/02/16 13:07:00;;;;;;;2.88;2.00;;;23.70;54.70;;;;;;5093161;28;20748;-60
2022/02/16 13:09:34;;;;;;;3.38;1.88;;;23.70;54.70;;;;;;5092699;28;20218;-60
2022/02/16 13:12:05;;;;;;;2.58;1.63;;;23.60;54.70;;;;;;5093022;28;20193;-60
2022/02/16 13:14:35;;;;;;;2.95;1.77;;;23.70;54.70;;;;;;5092905;28;20194;-59
2022/02/16 13:17:09;;;;;;;4.55;1.90;;;23.60;54.70;;;;;;5092505;28;20194;-60
2022/02/16 13:19:53;;;;;;;3.20;1.67;;;23.60;54.70;;;;;;5092570;28;20222;-58
2022/02/16 13:22:26;;;;;;;4.18;1.80;;;23.60;54.70;;;;;;5092712;28;20202;-60